createdAt,value
2022-11-02T00:00:31.530Z,0.00
2022-11-02T00:01:23.596Z,0.00
2022-11-02T00:02:23.620Z,0.00
2022-11-02T00:03:23.556Z,0.00
2022-11-02T00:04:23.533Z,0.00
2022-11-02T00:05:23.534Z,0.00
2022-11-02T00:06:23.515Z,0.00
2022-11-02T00:07:23.503Z,0.00
2022-11-02T00:08:23.488Z,0.00
2022-11-02T00:09:23.462Z,0.00
2022-11-02T00:10:23.488Z,0.00
2022-11-02T00:11:23.451Z,0.00
2022-11-02T00:12:23.444Z,0.00
2022-11-02T00:13:23.435Z,0.00
2022-11-02T00:14:23.421Z,0.00
2022-11-02T00:15:23.430Z,0.00
2022-11-02T00:16:23.412Z,0.00
2022-11-02T00:17:23.388Z,0.00
2022-11-02T00:18:23.374Z,0.00
2022-11-02T00:19:23.398Z,0.00
2022-11-02T00:20:23.373Z,0.00
2022-11-02T00:21:23.341Z,0.00
2022-11-02T00:22:23.343Z,0.00
2022-11-02T00:23:23.320Z,0.00
2022-11-02T00:24:23.312Z,0.00
2022-11-02T00:25:23.313Z,0.00
2022-11-02T00:26:23.297Z,0.00
2022-11-02T00:27:23.297Z,0.00
2022-11-02T00:28:23.260Z,0.00
2022-11-02T00:29:23.250Z,0.00
2022-11-02T00:30:23.252Z,0.00
2022-11-02T00:31:23.220Z,0.00
2022-11-02T00:32:23.215Z,0.00
2022-11-02T00:33:23.203Z,0.00
2022-11-02T00:34:23.207Z,0.00
2022-11-02T00:35:23.206Z,0.00
2022-11-02T00:36:23.175Z,0.00
2022-11-02T00:37:23.210Z,0.00
2022-11-02T00:38:23.153Z,0.00
2022-11-02T00:39:23.134Z,0.00
2022-11-02T00:40:23.155Z,0.00
2022-11-02T00:41:23.111Z,0.00
2022-11-02T00:42:23.109Z,0.00
2022-11-02T00:43:23.095Z,0.00
2022-11-02T00:44:23.102Z,0.00
2022-11-02T00:45:23.084Z,0.00
2022-11-02T00:46:23.075Z,0.00
2022-11-02T00:47:23.048Z,0.00
2022-11-02T00:48:23.064Z,0.00
2022-11-02T00:49:23.019Z,0.00
2022-11-02T00:50:23.028Z,0.00
2022-11-02T00:51:23.024Z,0.00
2022-11-02T00:52:22.997Z,0.00
2022-11-02T00:53:22.978Z,0.00
2022-11-02T00:54:25.910Z,0.00
2022-11-02T00:55:22.990Z,0.00
2022-11-02T00:56:22.948Z,0.00
2022-11-02T00:57:22.931Z,0.00
2022-11-02T00:58:22.921Z,0.00
2022-11-02T00:59:22.914Z,0.00
2022-11-02T01:00:22.913Z,0.00
2022-11-02T01:01:23.049Z,0.00
2022-11-02T01:02:23.005Z,0.00
2022-11-02T01:03:22.858Z,0.00
2022-11-02T01:04:22.853Z,0.00
2022-11-02T01:05:22.862Z,0.00
2022-11-02T01:06:22.828Z,0.00
2022-11-02T01:07:22.816Z,0.00
2022-11-02T01:08:22.815Z,0.00
2022-11-02T01:09:22.787Z,0.00
2022-11-02T01:10:22.807Z,0.00
2022-11-02T01:11:22.776Z,0.00
2022-11-02T01:12:22.765Z,0.00
2022-11-02T01:13:22.754Z,0.00
2022-11-02T01:14:22.762Z,0.00
2022-11-02T01:15:22.750Z,0.00
2022-11-02T01:16:22.725Z,0.00
2022-11-02T01:17:22.716Z,0.00
2022-11-02T01:18:22.691Z,0.00
2022-11-02T01:19:22.706Z,0.00
2022-11-02T01:20:22.725Z,0.00
2022-11-02T01:21:22.660Z,0.00
2022-11-02T01:22:22.647Z,0.00
2022-11-02T01:23:22.628Z,0.00
2022-11-02T01:24:22.631Z,0.00
2022-11-02T01:25:22.631Z,0.00
2022-11-02T01:26:22.606Z,0.00
2022-11-02T01:27:22.597Z,0.00
2022-11-02T01:28:22.599Z,0.00
2022-11-02T01:29:22.580Z,0.00
2022-11-02T01:30:22.586Z,0.00
2022-11-02T01:31:22.567Z,0.00
2022-11-02T01:32:22.540Z,0.00
2022-11-02T01:33:22.529Z,0.00
2022-11-02T01:34:22.513Z,0.00
2022-11-02T01:35:22.521Z,0.00
2022-11-02T01:37:22.469Z,0.00
2022-11-02T01:38:22.463Z,0.00
2022-11-02T01:39:22.479Z,0.00
2022-11-02T01:40:22.462Z,0.00
2022-11-02T01:41:22.432Z,0.00
2022-11-02T01:42:22.420Z,0.00
2022-11-02T01:43:22.411Z,0.00
2022-11-02T01:44:22.397Z,0.00
2022-11-02T01:45:22.406Z,0.00
2022-11-02T01:46:22.380Z,0.00
2022-11-02T01:47:22.362Z,0.00
2022-11-02T01:48:22.359Z,0.00
2022-11-02T01:49:22.339Z,0.00
2022-11-02T01:50:22.347Z,0.00
2022-11-02T01:51:22.311Z,0.00
2022-11-02T01:52:22.308Z,0.00
2022-11-02T01:53:22.297Z,0.00
2022-11-02T01:54:22.281Z,0.00
2022-11-02T01:55:22.283Z,0.00
2022-11-02T01:57:22.243Z,0.00
2022-11-02T01:58:22.239Z,0.00
2022-11-02T01:59:22.232Z,0.00
2022-11-02T02:00:22.240Z,0.00
2022-11-02T02:02:18.877Z,0.00
2022-11-02T02:03:19.676Z,0.00
2022-11-02T02:04:19.664Z,0.00
2022-11-02T02:05:19.673Z,0.00
2022-11-02T02:06:19.648Z,0.00
2022-11-02T02:07:19.634Z,0.00
2022-11-02T02:08:19.616Z,0.00
2022-11-02T02:09:19.623Z,0.00
2022-11-02T02:10:19.595Z,0.00
2022-11-02T02:11:19.598Z,0.00
2022-11-02T02:12:19.579Z,0.00
2022-11-02T02:13:19.578Z,0.00
2022-11-02T02:14:19.557Z,0.00
2022-11-02T02:15:19.542Z,0.00
2022-11-02T02:16:19.554Z,0.00
2022-11-02T02:17:19.517Z,0.00
2022-11-02T02:18:19.514Z,0.00
2022-11-02T02:19:19.507Z,0.00
2022-11-02T02:20:19.490Z,0.00
2022-11-02T02:21:19.493Z,0.00
2022-11-02T02:22:19.470Z,0.00
2022-11-02T02:23:19.474Z,0.00
2022-11-02T02:24:19.445Z,0.00
2022-11-02T02:25:19.450Z,0.00
2022-11-02T02:26:19.440Z,0.00
2022-11-02T02:27:19.439Z,0.00
2022-11-02T02:28:19.396Z,0.00
2022-11-02T02:29:19.403Z,0.00
2022-11-02T02:30:19.377Z,0.00
2022-11-02T02:31:19.413Z,0.00
2022-11-02T02:32:19.353Z,0.00
2022-11-02T02:33:19.355Z,0.00
2022-11-02T02:34:19.332Z,0.00
2022-11-02T02:35:19.324Z,0.00
2022-11-02T02:36:19.330Z,0.00
2022-11-02T02:37:19.294Z,0.00
2022-11-02T02:38:19.286Z,0.00
2022-11-02T02:39:19.296Z,0.00
2022-11-02T02:40:19.261Z,0.00
2022-11-02T02:41:19.277Z,0.00
2022-11-02T02:42:19.244Z,0.00
2022-11-02T02:43:19.238Z,0.00
2022-11-02T02:44:19.247Z,0.00
2022-11-02T02:45:19.217Z,0.00
2022-11-02T02:46:19.221Z,0.00
2022-11-02T02:47:19.188Z,0.00
2022-11-02T02:48:19.224Z,0.00
2022-11-02T02:49:19.168Z,0.00
2022-11-02T02:50:19.163Z,0.00
2022-11-02T02:51:19.152Z,0.00
2022-11-02T02:52:19.156Z,0.00
2022-11-02T02:53:19.127Z,0.00
2022-11-02T02:54:19.119Z,0.00
2022-11-02T02:55:19.140Z,0.00
2022-11-02T02:56:19.105Z,0.00
2022-11-02T02:57:19.093Z,0.00
2022-11-02T02:58:19.067Z,0.00
2022-11-02T02:59:19.066Z,0.00
2022-11-02T03:00:19.041Z,0.00
2022-11-02T03:01:19.242Z,0.00
2022-11-02T03:02:19.133Z,0.00
2022-11-02T03:03:19.005Z,0.00
2022-11-02T03:04:19.023Z,0.00
2022-11-02T03:05:19.004Z,0.00
2022-11-02T03:06:19.012Z,0.00
2022-11-02T03:07:18.972Z,0.00
2022-11-02T03:08:18.958Z,0.00
2022-11-02T03:09:18.956Z,0.00
2022-11-02T03:10:18.946Z,0.00
2022-11-02T03:11:18.938Z,0.00
2022-11-02T03:12:18.925Z,0.00
2022-11-02T03:13:18.899Z,0.00
2022-11-02T03:14:18.893Z,0.00
2022-11-02T03:15:18.870Z,0.00
2022-11-02T03:16:18.935Z,0.00
2022-11-02T03:17:18.851Z,0.00
2022-11-02T03:18:18.843Z,0.00
2022-11-02T03:19:18.837Z,0.00
2022-11-02T03:20:18.821Z,0.00
2022-11-02T03:21:18.830Z,0.00
2022-11-02T03:22:18.802Z,0.00
2022-11-02T03:23:18.800Z,0.00
2022-11-02T03:24:18.785Z,0.00
2022-11-02T03:25:18.767Z,0.00
2022-11-02T03:26:18.773Z,0.00
2022-11-02T03:27:18.779Z,0.00
2022-11-02T03:28:18.729Z,0.00
2022-11-02T03:29:18.720Z,0.00
2022-11-02T03:30:18.711Z,0.00
2022-11-02T03:31:18.714Z,0.00
2022-11-02T03:32:18.702Z,0.00
2022-11-02T03:33:18.674Z,0.00
2022-11-02T03:34:18.691Z,0.00
2022-11-02T03:35:18.661Z,0.00
2022-11-02T03:36:18.662Z,0.00
2022-11-02T03:37:18.646Z,0.00
2022-11-02T03:38:18.642Z,0.00
2022-11-02T03:39:18.617Z,0.00
2022-11-02T03:40:18.599Z,0.00
2022-11-02T03:41:18.608Z,0.00
2022-11-02T03:42:18.578Z,0.00
2022-11-02T03:43:18.562Z,0.00
2022-11-02T03:44:18.559Z,0.00
2022-11-02T03:45:18.547Z,0.00
2022-11-02T03:46:18.557Z,0.00
2022-11-02T03:47:18.528Z,0.00
2022-11-02T03:48:18.528Z,0.00
2022-11-02T03:49:18.489Z,0.00
2022-11-02T03:50:18.507Z,0.00
2022-11-02T03:51:18.500Z,0.00
2022-11-02T03:52:18.500Z,0.00
2022-11-02T03:53:18.453Z,0.00
2022-11-02T03:54:18.448Z,0.00
2022-11-02T03:55:18.434Z,0.00
2022-11-02T03:56:18.450Z,0.00
2022-11-02T03:57:18.430Z,0.00
2022-11-02T03:58:18.399Z,0.00
2022-11-02T03:59:18.385Z,0.00
2022-11-02T04:00:18.407Z,0.00
2022-11-02T04:01:18.447Z,0.00
2022-11-02T04:02:18.503Z,0.00
2022-11-02T04:03:18.349Z,0.00
2022-11-02T04:04:18.350Z,0.00
2022-11-02T04:05:18.325Z,0.00
2022-11-02T04:06:18.336Z,0.00
2022-11-02T04:07:18.308Z,0.00
2022-11-02T04:08:18.317Z,0.00
2022-11-02T04:09:18.277Z,0.00
2022-11-02T04:10:18.274Z,0.00
2022-11-02T04:11:18.295Z,0.00
2022-11-02T04:12:18.799Z,0.00
2022-11-02T04:13:18.224Z,0.00
2022-11-02T04:14:18.228Z,0.00
2022-11-02T04:15:18.203Z,0.00
2022-11-02T04:16:20.308Z,0.00
2022-11-02T04:17:18.244Z,0.00
2022-11-02T04:18:18.177Z,0.00
2022-11-02T04:19:18.190Z,0.00
2022-11-02T04:20:18.160Z,0.00
2022-11-02T04:21:18.176Z,0.00
2022-11-02T04:22:18.136Z,0.00
2022-11-02T04:23:18.118Z,0.00
2022-11-02T04:24:18.116Z,0.00
2022-11-02T04:25:18.104Z,0.00
2022-11-02T04:26:18.102Z,0.00
2022-11-02T04:27:20.917Z,0.00
2022-11-02T04:28:18.071Z,0.00
2022-11-02T04:29:18.059Z,0.00
2022-11-02T04:30:18.048Z,0.00
2022-11-02T04:31:18.061Z,0.00
2022-11-02T04:32:18.021Z,0.00
2022-11-02T04:33:18.007Z,0.00
2022-11-02T04:34:17.997Z,0.00
2022-11-02T04:35:17.985Z,0.00
2022-11-02T04:36:18.026Z,0.00
2022-11-02T04:37:17.996Z,0.00
2022-11-02T04:38:17.955Z,0.00
2022-11-02T04:39:17.976Z,0.00
2022-11-02T04:40:17.939Z,0.00
2022-11-02T04:41:17.940Z,0.00
2022-11-02T04:42:17.916Z,0.00
2022-11-02T04:43:17.910Z,0.00
2022-11-02T04:44:17.898Z,0.00
2022-11-02T04:45:17.871Z,0.00
2022-11-02T04:46:17.901Z,0.00
2022-11-02T04:47:17.858Z,0.00
2022-11-02T04:48:17.841Z,0.00
2022-11-02T04:49:17.826Z,0.00
2022-11-02T04:50:17.883Z,0.00
2022-11-02T04:51:17.817Z,0.00
2022-11-02T04:52:17.814Z,0.00
2022-11-02T04:53:17.825Z,0.00
2022-11-02T04:54:17.792Z,0.00
2022-11-02T04:55:17.775Z,0.00
2022-11-02T04:56:17.750Z,0.00
2022-11-02T04:57:17.762Z,0.00
2022-11-02T04:58:17.734Z,0.00
2022-11-02T04:59:17.726Z,0.00
2022-11-02T05:00:17.707Z,0.00
2022-11-02T05:01:17.844Z,0.00
2022-11-02T05:02:17.823Z,0.00
2022-11-02T05:03:17.676Z,0.00
2022-11-02T05:04:17.665Z,0.00
2022-11-02T05:05:17.686Z,0.00
2022-11-02T05:06:17.645Z,0.00
2022-11-02T05:07:17.637Z,0.00
2022-11-02T05:08:17.621Z,0.00
2022-11-02T05:09:17.603Z,0.00
2022-11-02T05:10:17.601Z,0.00
2022-11-02T05:11:17.591Z,0.00
2022-11-02T05:12:17.628Z,0.00
2022-11-02T05:13:17.558Z,0.00
2022-11-02T05:14:17.555Z,0.00
2022-11-02T05:15:17.555Z,0.00
2022-11-02T05:16:17.542Z,0.00
2022-11-02T05:17:17.536Z,0.00
2022-11-02T05:18:19.129Z,0.00
2022-11-02T05:19:17.539Z,0.00
2022-11-02T05:20:17.509Z,0.00
2022-11-02T05:21:17.468Z,0.00
2022-11-02T05:22:17.518Z,0.00
2022-11-02T05:23:17.450Z,0.00
2022-11-02T05:24:17.436Z,0.00
2022-11-02T05:25:17.431Z,0.00
2022-11-02T05:26:17.445Z,0.00
2022-11-02T05:27:17.415Z,0.00
2022-11-02T05:28:17.417Z,0.00
2022-11-02T05:29:17.394Z,0.00
2022-11-02T05:30:17.366Z,0.00
2022-11-02T05:31:17.371Z,0.00
2022-11-02T05:32:17.407Z,0.00
2022-11-02T05:33:17.349Z,0.00
2022-11-02T05:34:17.333Z,0.00
2022-11-02T05:35:17.325Z,0.00
2022-11-02T05:36:17.304Z,0.00
2022-11-02T05:37:17.325Z,0.00
2022-11-02T05:38:17.313Z,0.00
2022-11-02T05:39:17.274Z,0.00
2022-11-02T05:40:17.274Z,0.00
2022-11-02T05:41:17.275Z,0.00
2022-11-02T05:42:17.252Z,0.00
2022-11-02T05:43:17.280Z,0.00
2022-11-02T05:44:17.228Z,0.00
2022-11-02T05:45:20.609Z,0.00
2022-11-02T05:46:17.202Z,0.00
2022-11-02T05:47:17.198Z,0.00
2022-11-02T05:48:17.172Z,0.00
2022-11-02T05:49:17.171Z,0.00
2022-11-02T05:50:17.177Z,0.00
2022-11-02T05:51:17.141Z,0.00
2022-11-02T05:52:17.150Z,0.00
2022-11-02T05:53:17.150Z,4.00
2022-11-02T05:54:17.109Z,0.00
2022-11-02T05:55:17.094Z,0.00
2022-11-02T05:56:22.098Z,4.00
2022-11-02T05:57:17.099Z,4.00
2022-11-02T05:58:17.128Z,4.00
2022-11-02T05:59:17.057Z,4.00
2022-11-02T06:00:17.073Z,4.00
2022-11-02T06:01:17.042Z,8.00
2022-11-02T06:02:17.032Z,4.00
2022-11-02T06:03:17.030Z,8.00
2022-11-02T06:04:17.019Z,8.00
2022-11-02T06:05:17.251Z,8.00
2022-11-02T06:06:16.979Z,8.00
2022-11-02T06:07:16.984Z,12.00
2022-11-02T06:08:16.961Z,16.00
2022-11-02T06:09:16.945Z,16.00
2022-11-02T06:10:16.931Z,20.00
2022-11-02T06:11:16.921Z,24.00
2022-11-02T06:12:16.916Z,28.00
2022-11-02T06:13:16.895Z,36.00
2022-11-02T06:14:16.883Z,44.00
2022-11-02T06:15:16.888Z,52.00
2022-11-02T06:16:21.651Z,56.00
2022-11-02T06:17:16.868Z,64.00
2022-11-02T06:18:16.846Z,76.00
2022-11-02T06:19:16.830Z,80.00
2022-11-02T06:20:16.830Z,88.00
2022-11-02T06:21:16.806Z,100.00
2022-11-02T06:22:16.816Z,112.00
2022-11-02T06:23:16.794Z,120.00
2022-11-02T06:24:16.789Z,128.00
2022-11-02T06:25:16.768Z,132.00
2022-11-02T06:26:16.754Z,140.00
2022-11-02T06:27:16.779Z,144.00
2022-11-02T06:28:16.725Z,156.00
2022-11-02T06:29:16.732Z,160.00
2022-11-02T06:30:16.723Z,156.00
2022-11-02T06:31:16.687Z,168.00
2022-11-02T06:32:16.696Z,168.00
2022-11-02T06:33:16.671Z,184.00
2022-11-02T06:34:16.657Z,212.00
2022-11-02T06:35:16.651Z,220.00
2022-11-02T06:36:16.635Z,240.00
2022-11-02T06:37:16.640Z,260.00
2022-11-02T06:38:16.615Z,288.00
2022-11-02T06:39:16.601Z,292.00
2022-11-02T06:40:17.121Z,316.00
2022-11-02T06:41:16.594Z,316.00
2022-11-02T06:42:16.577Z,344.00
2022-11-02T06:43:17.588Z,368.00
2022-11-02T06:44:16.590Z,384.00
2022-11-02T06:45:16.531Z,396.00
2022-11-02T06:46:16.524Z,416.00
2022-11-02T06:47:16.544Z,412.00
2022-11-02T06:48:16.505Z,408.00
2022-11-02T06:49:16.498Z,396.00
2022-11-02T06:50:16.480Z,388.00
2022-11-02T06:51:16.476Z,424.00
2022-11-02T06:52:16.478Z,448.00
2022-11-02T06:53:16.441Z,484.00
2022-11-02T06:54:16.464Z,564.00
2022-11-02T06:55:16.432Z,536.00
2022-11-02T06:56:16.412Z,556.00
2022-11-02T06:57:16.418Z,568.00
2022-11-02T06:58:16.383Z,584.00
2022-11-02T06:59:16.407Z,596.00
2022-11-02T07:00:19.315Z,604.00
2022-11-02T07:01:16.506Z,616.00
2022-11-02T07:02:16.487Z,624.00
2022-11-02T07:03:16.325Z,636.00
2022-11-02T07:04:16.325Z,652.00
2022-11-02T07:05:16.335Z,660.00
2022-11-02T07:06:16.347Z,692.00
2022-11-02T07:07:16.310Z,732.00
2022-11-02T07:08:16.299Z,776.00
2022-11-02T07:09:16.276Z,752.00
2022-11-02T07:10:16.257Z,740.00
2022-11-02T07:11:16.303Z,744.00
2022-11-02T07:12:19.260Z,744.00
2022-11-02T07:13:16.224Z,756.00
2022-11-02T07:14:16.219Z,764.00
2022-11-02T07:15:16.194Z,784.00
2022-11-02T07:16:16.183Z,792.00
2022-11-02T07:17:16.200Z,812.00
2022-11-02T07:18:16.162Z,900.00
2022-11-02T07:19:16.144Z,944.00
2022-11-02T07:20:16.145Z,956.00
2022-11-02T07:21:16.248Z,988.00
2022-11-02T07:22:16.175Z,1060.00
2022-11-02T07:23:16.111Z,948.00
2022-11-02T07:24:16.243Z,952.00
2022-11-02T07:25:16.089Z,996.00
2022-11-02T07:26:16.109Z,1040.00
2022-11-02T07:27:16.067Z,1052.00
2022-11-02T07:28:16.051Z,1080.00
2022-11-02T07:29:16.076Z,1060.00
2022-11-02T07:30:16.058Z,1016.00
2022-11-02T07:31:16.021Z,928.00
2022-11-02T07:32:16.043Z,912.00
2022-11-02T07:33:15.990Z,1004.00
2022-11-02T07:34:17.291Z,1080.00
2022-11-02T07:35:15.980Z,1112.00
2022-11-02T07:36:15.979Z,1108.00
2022-11-02T07:37:15.962Z,1052.00
2022-11-02T07:38:15.967Z,980.00
2022-11-02T07:39:15.918Z,976.00
2022-11-02T07:40:15.913Z,984.00
2022-11-02T07:41:15.930Z,980.00
2022-11-02T07:42:15.924Z,984.00
2022-11-02T07:43:15.881Z,968.00
2022-11-02T07:44:15.887Z,976.00
2022-11-02T07:45:15.857Z,988.00
2022-11-02T07:46:15.856Z,1024.00
2022-11-02T07:47:15.850Z,1048.00
2022-11-02T07:48:15.853Z,1064.00
2022-11-02T07:49:21.088Z,1324.00
2022-11-02T07:50:15.816Z,1480.00
2022-11-02T07:51:15.817Z,1596.00
2022-11-02T07:52:15.796Z,1588.00
2022-11-02T07:53:15.781Z,1400.00
2022-11-02T07:54:15.763Z,1472.00
2022-11-02T07:55:15.739Z,1376.00
2022-11-02T07:56:15.743Z,1176.00
2022-11-02T07:57:15.750Z,1184.00
2022-11-02T07:58:15.711Z,1212.00
2022-11-02T07:59:15.714Z,1376.00
2022-11-02T08:00:15.702Z,1624.00
2022-11-02T08:01:15.735Z,1492.00
2022-11-02T08:02:23.524Z,1424.00
2022-11-02T08:03:15.750Z,1412.00
2022-11-02T08:04:15.705Z,1400.00
2022-11-02T08:05:15.645Z,1300.00
2022-11-02T08:06:15.634Z,1260.00
2022-11-02T08:07:15.639Z,1292.00
2022-11-02T08:08:15.612Z,1208.00
2022-11-02T08:09:15.623Z,1288.00
2022-11-02T08:10:15.596Z,1224.00
2022-11-02T08:11:15.606Z,1248.00
2022-11-02T08:12:16.384Z,1144.00
2022-11-02T08:13:15.600Z,1164.00
2022-11-02T08:14:15.557Z,1168.00
2022-11-02T08:15:15.567Z,1188.00
2022-11-02T08:16:15.548Z,1180.00
2022-11-02T08:17:15.532Z,1140.00
2022-11-02T08:18:15.516Z,1140.00
2022-11-02T08:19:15.486Z,1152.00
2022-11-02T08:20:15.487Z,1156.00
2022-11-02T08:21:15.461Z,1164.00
2022-11-02T08:22:15.488Z,1184.00
2022-11-02T08:23:15.475Z,1200.00
2022-11-02T08:24:15.455Z,1260.00
2022-11-02T08:26:15.451Z,1432.00
2022-11-02T08:27:15.436Z,1668.00
2022-11-02T08:28:15.452Z,1628.00
2022-11-02T08:29:15.395Z,1704.00
2022-11-02T08:30:15.377Z,1496.00
2022-11-02T08:31:15.452Z,1460.00
2022-11-02T08:32:15.366Z,1364.00
2022-11-02T08:33:15.396Z,1416.00
2022-11-02T08:34:15.337Z,1576.00
2022-11-02T08:35:15.326Z,1796.00
2022-11-02T08:36:15.317Z,2028.00
2022-11-02T08:37:15.310Z,2008.00
2022-11-02T08:38:28.199Z,1976.00
2022-11-02T08:39:18.943Z,1840.00
2022-11-02T08:40:15.267Z,1644.00
2022-11-02T08:41:15.275Z,1492.00
2022-11-02T08:42:15.285Z,1548.00
2022-11-02T08:43:15.227Z,1500.00
2022-11-02T08:44:15.214Z,1492.00
2022-11-02T08:45:15.201Z,1672.00
2022-11-02T08:46:16.865Z,1880.00
2022-11-02T08:47:15.180Z,1728.00
2022-11-02T08:48:15.203Z,1584.00
2022-11-02T08:49:15.163Z,2068.00
2022-11-02T08:50:15.160Z,2336.00
2022-11-02T08:51:15.176Z,2276.00
2022-11-02T08:52:15.131Z,1836.00
2022-11-02T08:53:15.133Z,1712.00
2022-11-02T08:54:15.113Z,1820.00
2022-11-02T08:55:15.123Z,1996.00
2022-11-02T08:56:15.091Z,2112.00
2022-11-02T08:57:15.069Z,2104.00
2022-11-02T08:58:15.079Z,1980.00
2022-11-02T08:59:15.070Z,1672.00
2022-11-02T09:00:15.049Z,1932.00
2022-11-02T09:01:15.063Z,1996.00
2022-11-02T09:02:15.148Z,1872.00
2022-11-02T09:03:15.025Z,2012.00
2022-11-02T09:04:14.996Z,1948.00
2022-11-02T09:05:14.986Z,1932.00
2022-11-02T09:06:14.976Z,1816.00
2022-11-02T09:07:14.971Z,1888.00
2022-11-02T09:08:15.030Z,1888.00
2022-11-02T09:09:14.936Z,2004.00
2022-11-02T09:10:14.939Z,2020.00
2022-11-02T09:11:14.924Z,2436.00
2022-11-02T09:12:14.932Z,2344.00
2022-11-02T09:13:14.924Z,2364.00
2022-11-02T09:14:14.919Z,2380.00
2022-11-02T09:15:14.876Z,2528.00
2022-11-02T09:16:14.875Z,2584.00
2022-11-02T09:17:14.855Z,2432.00
2022-11-02T09:18:14.861Z,2344.00
2022-11-02T09:19:14.850Z,2484.00
2022-11-02T09:20:14.830Z,2328.00
2022-11-02T09:21:14.808Z,2296.00
2022-11-02T09:22:14.831Z,1988.00
2022-11-02T09:23:14.808Z,2020.00
2022-11-02T09:24:14.786Z,2412.00
2022-11-02T09:25:14.815Z,2616.00
2022-11-02T09:26:14.772Z,2936.00
2022-11-02T09:27:14.758Z,2392.00
2022-11-02T09:28:14.804Z,2712.00
2022-11-02T09:29:14.795Z,3376.00
2022-11-02T09:30:14.727Z,3384.00
2022-11-02T09:31:14.717Z,3100.00
2022-11-02T09:32:14.702Z,2836.00
2022-11-02T09:33:14.726Z,2328.00
2022-11-02T09:34:14.676Z,1716.00
2022-11-02T09:35:14.671Z,1496.00
2022-11-02T09:36:14.692Z,1832.00
2022-11-02T09:37:14.673Z,2852.00
2022-11-02T09:38:14.668Z,2924.00
2022-11-02T09:39:14.637Z,3036.00
2022-11-02T09:40:14.619Z,2324.00
2022-11-02T09:41:14.599Z,1928.00
2022-11-02T09:42:14.584Z,2300.00
2022-11-02T09:43:14.668Z,2328.00
2022-11-02T09:44:14.605Z,2720.00
2022-11-02T09:45:14.558Z,3040.00
2022-11-02T09:46:14.540Z,2860.00
2022-11-02T09:48:17.947Z,3380.00
2022-11-02T09:49:14.513Z,2928.00
2022-11-02T09:50:14.585Z,2460.00
2022-11-02T09:51:14.489Z,2148.00
2022-11-02T09:52:14.493Z,1860.00
2022-11-02T09:53:14.472Z,1604.00
2022-11-02T09:54:17.468Z,1588.00
2022-11-02T09:55:14.469Z,1688.00
2022-11-02T09:56:14.445Z,1676.00
2022-11-02T09:57:14.492Z,1724.00
2022-11-02T09:58:14.432Z,2176.00
2022-11-02T09:59:14.392Z,2328.00
2022-11-02T10:00:14.411Z,1968.00
2022-11-02T10:01:14.416Z,2112.00
2022-11-02T10:02:14.374Z,1692.00
2022-11-02T10:03:14.378Z,996.00
2022-11-02T10:04:14.363Z,904.00
2022-11-02T10:05:14.405Z,964.00
2022-11-02T10:06:14.324Z,948.00
2022-11-02T10:07:14.329Z,1040.00
2022-11-02T10:08:14.353Z,1112.00
2022-11-02T10:09:14.287Z,984.00
2022-11-02T10:10:14.356Z,1208.00
2022-11-02T10:11:14.257Z,1980.00
2022-11-02T10:12:14.270Z,3092.00
2022-11-02T10:13:14.290Z,3092.00
2022-11-02T10:14:14.245Z,2548.00
2022-11-02T10:15:14.211Z,2448.00
2022-11-02T10:16:14.206Z,2468.00
2022-11-02T10:17:14.233Z,2520.00
2022-11-02T10:18:14.204Z,2704.00
2022-11-02T10:19:14.198Z,2668.00
2022-11-02T10:20:14.179Z,2780.00
2022-11-02T10:21:14.143Z,3000.00
2022-11-02T10:22:14.149Z,2852.00
2022-11-02T10:23:14.152Z,2656.00
2022-11-02T10:24:14.116Z,2432.00
2022-11-02T10:25:14.130Z,2488.00
2022-11-02T10:26:14.095Z,2256.00
2022-11-02T10:27:14.482Z,1584.00
2022-11-02T10:28:14.145Z,1552.00
2022-11-02T10:29:14.077Z,1552.00
2022-11-02T10:30:14.060Z,1644.00
2022-11-02T10:31:15.672Z,1712.00
2022-11-02T10:32:14.048Z,1572.00
2022-11-02T10:33:14.052Z,1376.00
2022-11-02T10:34:14.022Z,1272.00
2022-11-02T10:36:18.402Z,1328.00
2022-11-02T10:37:13.972Z,1396.00
2022-11-02T10:38:15.491Z,1668.00
2022-11-02T10:39:13.968Z,1828.00
2022-11-02T10:40:13.947Z,1788.00
2022-11-02T10:41:13.929Z,1864.00
2022-11-02T10:42:13.915Z,1860.00
2022-11-02T10:43:13.960Z,1924.00
2022-11-02T10:44:13.912Z,1944.00
2022-11-02T10:45:13.892Z,1836.00
2022-11-02T10:46:13.874Z,1948.00
2022-11-02T10:47:13.873Z,1944.00
2022-11-02T10:48:13.879Z,1952.00
2022-11-02T10:49:13.849Z,2064.00
2022-11-02T10:50:13.843Z,2200.00
2022-11-02T10:51:13.825Z,2296.00
2022-11-02T10:52:13.933Z,2264.00
2022-11-02T10:53:39.510Z,2280.00
2022-11-02T10:54:15.124Z,1968.00
2022-11-02T10:55:13.787Z,1664.00
2022-11-02T10:56:13.780Z,2100.00
2022-11-02T10:57:13.776Z,2228.00
2022-11-02T10:58:13.795Z,2340.00
2022-11-02T10:59:13.742Z,2140.00
2022-11-02T11:00:13.841Z,2536.00
2022-11-02T11:01:13.831Z,2388.00
2022-11-02T11:02:13.838Z,1636.00
2022-11-02T11:03:13.711Z,1608.00
2022-11-02T11:04:13.691Z,2060.00
2022-11-02T11:05:13.668Z,2624.00
2022-11-02T11:06:13.653Z,3032.00
2022-11-02T11:07:13.645Z,3108.00
2022-11-02T11:08:13.651Z,3184.00
2022-11-02T11:09:13.615Z,3200.00
2022-11-02T11:10:13.616Z,3136.00
2022-11-02T11:11:13.605Z,2668.00
2022-11-02T11:12:13.592Z,2396.00
2022-11-02T11:15:48.434Z,2620.00
2022-11-02T11:15:53.579Z,3144.00
2022-11-02T11:16:54.234Z,3040.00
2022-11-02T11:19:53.540Z,3652.00
2022-11-02T11:20:53.508Z,3384.00
2022-11-02T11:21:53.490Z,3164.00
2022-11-02T11:22:53.521Z,3288.00
2022-11-02T11:23:53.463Z,3656.00
2022-11-02T11:24:53.457Z,3700.00
2022-11-02T11:25:53.451Z,3156.00
2022-11-02T11:26:56.615Z,2780.00
2022-11-02T11:27:53.445Z,2976.00
2022-11-02T11:28:53.442Z,3372.00
2022-11-02T11:29:53.398Z,3224.00
2022-11-02T11:31:00.028Z,3412.00
2022-11-02T11:31:53.397Z,3376.00
2022-11-02T11:32:53.394Z,3004.00
2022-11-02T11:33:53.364Z,3404.00
2022-11-02T11:34:53.354Z,4380.00
2022-11-02T11:35:53.342Z,5024.00
2022-11-02T11:36:53.328Z,5112.00
2022-11-02T11:37:53.341Z,4684.00
2022-11-02T11:38:53.310Z,3960.00
2022-11-02T11:39:54.880Z,3572.00
2022-11-02T11:40:53.288Z,3380.00
2022-11-02T11:41:53.272Z,3216.00
2022-11-02T11:42:54.698Z,2588.00
2022-11-02T11:43:53.259Z,2444.00
2022-11-02T11:44:53.245Z,1948.00
2022-11-02T11:45:53.238Z,2176.00
2022-11-02T11:46:53.219Z,2296.00
2022-11-02T11:47:53.220Z,2072.00
2022-11-02T11:48:53.201Z,1636.00
2022-11-02T11:50:09.351Z,1176.00
2022-11-02T11:50:53.179Z,1468.00
2022-11-02T11:51:53.166Z,1796.00
2022-11-02T11:52:53.167Z,1932.00
2022-11-02T11:53:53.142Z,2420.00
2022-11-02T11:54:53.134Z,2852.00
2022-11-02T11:55:53.114Z,3272.00
2022-11-02T11:56:53.115Z,4524.00
2022-11-02T11:57:53.129Z,4740.00
2022-11-02T11:58:53.087Z,4192.00
2022-11-02T11:59:53.142Z,4084.00
2022-11-02T12:00:53.060Z,3168.00
2022-11-02T12:01:53.159Z,2248.00
2022-11-02T12:02:53.108Z,1688.00
2022-11-02T12:03:53.036Z,1560.00
2022-11-02T12:04:53.026Z,1464.00
2022-11-02T12:05:53.031Z,1840.00
2022-11-02T12:06:53.017Z,2480.00
2022-11-02T12:07:55.994Z,2480.00
2022-11-02T12:08:52.983Z,2828.00
2022-11-02T12:09:53.059Z,2140.00
2022-11-02T12:10:52.961Z,1464.00
2022-11-02T12:11:52.962Z,1092.00
2022-11-02T12:12:52.939Z,1284.00
2022-11-02T12:13:52.936Z,1704.00
2022-11-02T12:14:52.950Z,1844.00
2022-11-02T12:15:52.905Z,2248.00
2022-11-02T12:16:53.057Z,3236.00
2022-11-02T12:17:52.889Z,3332.00
2022-11-02T12:18:52.953Z,2312.00
2022-11-02T12:19:52.871Z,1808.00
2022-11-02T12:20:52.856Z,1828.00
2022-11-02T12:21:52.827Z,1840.00
2022-11-02T12:22:52.821Z,2452.00
2022-11-02T12:23:52.818Z,2088.00
2022-11-02T12:24:52.803Z,1672.00
2022-11-02T12:25:52.794Z,1488.00
2022-11-02T12:26:52.782Z,1680.00
2022-11-02T12:27:52.762Z,1564.00
2022-11-02T12:28:52.799Z,1300.00
2022-11-02T12:29:52.748Z,1168.00
2022-11-02T12:30:52.760Z,1284.00
2022-11-02T12:31:56.734Z,1856.00
2022-11-02T12:32:52.715Z,3184.00
2022-11-02T12:33:52.717Z,3804.00
2022-11-02T12:35:02.919Z,2216.00
2022-11-02T12:35:52.676Z,1604.00
2022-11-02T12:37:26.522Z,1336.00
2022-11-02T12:37:52.666Z,1332.00
2022-11-02T12:38:52.661Z,1440.00
2022-11-02T12:39:52.629Z,1708.00
2022-11-02T12:40:52.623Z,1788.00
2022-11-02T12:41:52.603Z,2292.00
2022-11-02T12:42:52.598Z,2776.00
2022-11-02T12:43:52.611Z,2764.00
2022-11-02T12:44:52.632Z,2640.00
2022-11-02T12:45:52.572Z,2432.00
2022-11-02T12:46:52.557Z,2268.00
2022-11-02T12:47:52.554Z,2220.00
2022-11-02T12:48:52.556Z,2320.00
2022-11-02T12:49:52.527Z,2304.00
2022-11-02T12:50:52.519Z,2240.00
2022-11-02T12:51:52.504Z,2532.00